Time;durP1;ratioP1;P1;durP2;ratioP2;P2;SDS_P1;SDS_P2;PMS_P1;PMS_P2;Temp;Humidity;BMP_temperature;BMP_pressure;BME280_temperature;BME280_humidity;BME280_pressure;Samples;Min_cycle;Max_cycle;Signal;HPM_P1;HPM_P2
2022/01/20 00:02:25;;;;;;;3.33;1.40;;;7.00;99.90;;;;;;5111323;28;20485;-81
2022/01/20 00:05:07;;;;;;;2.07;1.23;;;7.10;99.90;;;;;;5111508;28;20883;-82
2022/01/20 00:07:46;;;;;;;2.03;1.20;;;6.80;99.90;;;;;;5112398;28;20500;-83
2022/01/20 00:26:51;;;;;;;1.33;1.23;;;6.40;99.90;;;;;;5105602;28;20473;-82
2022/01/20 00:29:27;;;;;;;1.33;1.20;;;6.40;99.90;;;;;;5111027;28;20488;-82
2022/01/20 00:32:06;;;;;;;2.40;2.00;;;6.50;99.90;;;;;;5108806;28;20468;-82
2022/01/20 00:37:21;;;;;;;2.33;1.47;;;6.50;99.90;;;;;;5097043;28;20464;-84
2022/01/20 00:39:50;;;;;;;1.43;1.27;;;6.60;99.90;;;;;;5107487;28;20457;-82
2022/01/20 00:42:20;;;;;;;1.30;1.20;;;6.70;99.90;;;;;;5107431;28;20449;-82
2022/01/20 00:44:48;;;;;;;2.23;1.17;;;6.70;99.90;;;;;;5107584;27;20502;-82
2022/01/20 00:47:18;;;;;;;1.90;1.00;;;6.60;99.90;;;;;;5106378;27;20559;-82
2022/01/20 00:49:47;;;;;;;1.47;1.30;;;6.70;99.90;;;;;;5105610;28;20460;-82
2022/01/20 00:52:16;;;;;;;1.20;1.10;;;6.70;99.90;;;;;;5103181;28;20936;-83
2022/01/20 00:54:45;;;;;;;1.17;1.00;;;6.80;99.90;;;;;;5103582;28;21016;-84
2022/01/20 00:57:14;;;;;;;1.00;0.90;;;6.90;99.90;;;;;;5106839;28;20478;-83
2022/01/20 00:59:44;;;;;;;1.50;1.10;;;6.90;99.90;;;;;;5103901;28;20980;-82
2022/01/20 01:02:13;;;;;;;2.00;1.30;;;7.00;99.90;;;;;;5106566;28;20456;-83
2022/01/20 01:04:42;;;;;;;1.27;1.13;;;7.10;99.90;;;;;;5109092;28;20446;-82
2022/01/20 01:07:29;;;;;;;2.40;1.30;;;7.10;99.90;;;;;;5097521;28;20490;-82
2022/01/20 01:09:57;;;;;;;2.40;1.30;;;7.00;99.90;;;;;;5101034;28;20454;-81
2022/01/20 01:12:33;;;;;;;1.07;0.97;;;7.00;99.90;;;;;;5109449;27;20458;-84
2022/01/20 01:15:07;;;;;;;1.10;1.00;;;7.00;99.90;;;;;;5111491;28;20507;-82
2022/01/20 01:20:22;;;;;;;1.73;0.90;;;6.70;99.90;;;;;;5103512;28;20499;-82
2022/01/20 01:22:51;;;;;;;1.33;1.10;;;6.70;99.90;;;;;;5104207;28;20441;-83
2022/01/20 01:25:19;;;;;;;1.13;1.03;;;7.00;99.90;;;;;;5108962;28;20526;-82
2022/01/20 01:27:47;;;;;;;1.60;0.80;;;6.80;99.90;;;;;;5105564;28;20473;-83
2022/01/20 01:30:50;;;;;;;1.93;1.20;;;6.90;99.90;;;;;;5102623;28;20529;-81
2022/01/20 01:33:19;;;;;;;1.17;0.80;;;7.00;99.90;;;;;;5104873;28;20872;-80
2022/01/20 01:35:55;;;;;;;1.80;0.97;;;7.00;99.90;;;;;;5107696;28;20496;-82
2022/01/20 01:38:35;;;;;;;1.00;0.87;;;7.00;99.90;;;;;;5101293;28;20449;-80
2022/01/20 01:41:09;;;;;;;1.10;0.87;;;7.10;99.90;;;;;;5104276;28;20453;-81
2022/01/20 01:43:39;;;;;;;1.23;1.10;;;7.10;99.90;;;;;;5106234;28;20461;-81
2022/01/20 01:46:09;;;;;;;0.90;0.90;;;7.00;99.90;;;;;;5101313;28;20485;-81
2022/01/20 01:48:40;;;;;;;1.47;0.93;;;7.00;99.90;;;;;;5107050;28;20976;-81
2022/01/20 01:51:08;;;;;;;1.10;1.10;;;6.60;99.90;;;;;;5108439;28;20453;-81
2022/01/20 01:53:37;;;;;;;1.50;0.90;;;7.00;99.90;;;;;;5108931;28;20457;-81
2022/01/20 01:56:07;;;;;;;1.10;1.00;;;7.00;99.90;;;;;;5105500;28;21018;-81
2022/01/20 01:58:35;;;;;;;0.80;0.70;;;7.00;99.90;;;;;;5106599;28;20460;-81
2022/01/20 02:01:04;;;;;;;1.03;0.90;;;6.90;99.90;;;;;;5097294;28;20456;-81
2022/01/20 02:03:43;;;;;;;1.13;0.87;;;6.50;99.90;;;;;;5105200;28;20556;-80
2022/01/20 02:06:30;;;;;;;1.30;1.20;;;6.40;99.90;;;;;;5105128;28;20473;-81
2022/01/20 02:09:14;;;;;;;1.13;0.80;;;6.50;99.90;;;;;;5104394;28;20438;-80
2022/01/20 02:20:15;;;;;;;1.13;0.97;;;6.90;99.90;;;;;;5098496;28;20523;-81
2022/01/20 02:22:43;;;;;;;1.15;0.75;;;6.90;99.90;;;;;;5105201;28;20441;-80
2022/01/20 02:25:22;;;;;;;1.37;0.70;;;6.90;99.90;;;;;;5107348;28;20218;-80
2022/01/20 02:27:51;;;;;;;2.07;0.80;;;6.90;99.90;;;;;;5104492;28;20543;-81
2022/01/20 02:30:21;;;;;;;1.10;1.00;;;7.10;99.90;;;;;;5110057;28;20465;-81
2022/01/20 02:32:53;;;;;;;1.10;1.00;;;7.10;99.90;;;;;;5111158;28;20459;-81
2022/01/20 02:35:25;;;;;;;0.70;0.70;;;7.20;99.90;;;;;;5100358;28;20485;-81
2022/01/20 02:37:58;;;;;;;0.70;0.70;;;7.20;99.90;;;;;;5112156;28;20461;-83
2022/01/20 02:44:49;;;;;;;1.50;0.77;;;7.10;99.90;;;;;;5101999;28;21241;-80
2022/01/20 02:46:08;;;;;;;0.70;0.70;;;6.70;99.90;;;;;;5112002;28;20472;-81
2022/01/20 02:48:37;;;;;;;1.00;0.90;;;6.80;99.90;;;;;;5102675;28;20515;-82
2022/01/20 02:51:07;;;;;;;0.53;0.53;;;6.70;99.90;;;;;;5106521;28;20458;-81
2022/01/20 02:53:35;;;;;;;1.07;0.70;;;6.60;99.90;;;;;;5099257;28;20461;-80
2022/01/20 02:56:04;;;;;;;0.73;0.50;;;7.00;99.90;;;;;;5105582;28;20480;-82
2022/01/20 02:58:32;;;;;;;0.57;0.57;;;6.80;99.90;;;;;;5106620;28;20457;-81
2022/01/20 03:01:01;;;;;;;0.60;0.60;;;6.80;99.90;;;;;;5107169;28;20457;-81
2022/01/20 03:03:29;;;;;;;0.53;0.50;;;6.80;99.90;;;;;;5104286;28;20867;-81
2022/01/20 03:05:57;;;;;;;0.70;0.60;;;6.90;99.90;;;;;;5111702;28;20477;-81
2022/01/20 03:08:27;;;;;;;0.80;0.80;;;6.80;99.90;;;;;;5110304;28;20903;-80
2022/01/20 03:10:55;;;;;;;0.60;0.60;;;6.90;99.90;;;;;;5109356;28;20508;-81
2022/01/20 03:13:24;;;;;;;0.60;0.60;;;7.00;99.90;;;;;;5111028;28;20461;-81
2022/01/20 03:15:52;;;;;;;0.60;0.60;;;7.10;99.90;;;;;;5112656;28;20551;-81
2022/01/20 03:18:21;;;;;;;1.13;0.60;;;7.20;99.90;;;;;;5109961;27;20441;-83
2022/01/20 03:20:49;;;;;;;0.60;0.60;;;7.20;99.90;;;;;;5106796;28;20458;-81
2022/01/20 03:23:17;;;;;;;1.07;0.60;;;7.30;99.90;;;;;;5111140;28;20804;-81
2022/01/20 03:25:47;;;;;;;0.60;0.60;;;7.30;99.90;;;;;;5106898;27;20472;-81
2022/01/20 03:28:15;;;;;;;0.50;0.50;;;7.30;99.90;;;;;;5108857;28;20481;-82
2022/01/20 03:30:43;;;;;;;0.43;0.43;;;7.30;99.90;;;;;;5112014;28;20461;-82
2022/01/20 03:33:12;;;;;;;0.53;0.53;;;7.20;99.90;;;;;;5121254;27;20480;-82
2022/01/20 03:35:41;;;;;;;0.50;0.50;;;7.20;99.90;;;;;;5110945;28;20550;-82
2022/01/20 03:38:09;;;;;;;0.90;0.63;;;7.30;99.90;;;;;;5105257;28;20460;-81
2022/01/20 03:40:38;;;;;;;0.70;0.60;;;7.30;99.90;;;;;;5104583;28;20507;-80
2022/01/20 03:43:07;;;;;;;0.60;0.60;;;7.40;99.90;;;;;;5112238;28;20857;-81
2022/01/20 03:45:36;;;;;;;0.53;0.53;;;7.40;99.90;;;;;;5109296;28;20473;-81
2022/01/20 03:48:09;;;;;;;0.57;0.57;;;7.40;99.90;;;;;;5110289;28;20474;-82
2022/01/20 03:53:26;;;;;;;0.50;0.50;;;7.50;99.90;;;;;;5110735;28;20536;-82
2022/01/20 03:55:55;;;;;;;0.50;0.50;;;7.40;99.90;;;;;;5107162;28;20526;-82
2022/01/20 03:58:25;;;;;;;0.50;0.50;;;7.50;99.90;;;;;;5108018;28;20461;-81
2022/01/20 04:00:53;;;;;;;0.50;0.50;;;7.40;99.90;;;;;;5103291;28;20499;-82
2022/01/20 04:03:23;;;;;;;0.60;0.60;;;7.40;99.90;;;;;;5110479;28;21072;-81
2022/01/20 04:06:00;;;;;;;0.50;0.50;;;7.40;99.90;;;;;;5110012;28;20885;-82
2022/01/20 04:08:31;;;;;;;0.70;0.50;;;7.40;99.90;;;;;;5105748;28;20474;-82
2022/01/20 04:11:00;;;;;;;0.60;0.60;;;7.50;99.90;;;;;;5109558;28;20435;-81
2022/01/20 04:13:31;;;;;;;0.90;0.63;;;7.40;99.90;;;;;;5110584;28;20461;-81
2022/01/20 04:16:01;;;;;;;0.80;0.80;;;7.40;99.90;;;;;;5100429;28;20467;-82
2022/01/20 04:18:30;;;;;;;0.60;0.60;;;7.50;99.90;;;;;;5104249;28;20441;-81
2022/01/20 04:20:59;;;;;;;0.93;0.60;;;7.50;99.90;;;;;;5109407;28;20453;-82
2022/01/20 04:23:27;;;;;;;0.97;0.60;;;7.50;99.90;;;;;;5109059;28;20461;-82
2022/01/20 04:25:55;;;;;;;0.60;0.60;;;7.90;99.90;;;;;;5106189;28;20467;-82
2022/01/20 04:28:24;;;;;;;0.60;0.60;;;7.60;99.90;;;;;;5103210;28;20467;-82
2022/01/20 04:30:53;;;;;;;0.73;0.70;;;7.50;99.90;;;;;;5107336;28;20512;-81
2022/01/20 04:33:21;;;;;;;0.53;0.53;;;7.50;99.90;;;;;;5110746;28;20449;-82
2022/01/20 04:35:50;;;;;;;0.73;0.70;;;7.50;99.90;;;;;;5106371;28;20477;-82
2022/01/20 04:38:18;;;;;;;1.37;0.60;;;7.60;99.90;;;;;;5106832;28;20820;-81
2022/01/20 04:40:46;;;;;;;2.17;0.93;;;7.50;99.90;;;;;;5109775;28;20965;-82
2022/01/20 04:43:14;;;;;;;0.60;0.60;;;7.50;99.90;;;;;;5101636;28;20461;-84
2022/01/20 04:45:48;;;;;;;0.73;0.63;;;7.50;99.90;;;;;;5105417;28;20469;-83
2022/01/20 04:48:27;;;;;;;0.63;0.63;;;7.50;99.90;;;;;;5109177;27;20567;-82
2022/01/20 04:59:11;;;;;;;0.97;0.70;;;7.40;99.90;;;;;;5103378;27;20478;-82
2022/01/20 05:01:45;;;;;;;1.33;0.67;;;7.40;99.90;;;;;;5105262;28;20823;-80
2022/01/20 05:04:16;;;;;;;0.60;0.60;;;7.40;99.90;;;;;;5105224;28;20472;-81
2022/01/20 05:06:45;;;;;;;0.70;0.70;;;7.40;99.90;;;;;;5105006;28;20577;-81
2022/01/20 05:09:18;;;;;;;0.70;0.70;;;7.30;99.90;;;;;;5108666;28;20469;-82
2022/01/20 05:11:50;;;;;;;0.63;0.63;;;7.40;99.90;;;;;;5108042;28;20463;-80
2022/01/20 05:14:23;;;;;;;0.80;0.80;;;7.50;99.90;;;;;;5104516;28;21557;-81
2022/01/20 05:16:53;;;;;;;0.70;0.70;;;7.40;99.90;;;;;;5107011;28;20837;-82
2022/01/20 05:19:23;;;;;;;0.70;0.70;;;7.50;99.90;;;;;;5108815;28;20445;-81
2022/01/20 05:21:51;;;;;;;1.47;0.80;;;7.50;99.90;;;;;;5102576;28;20468;-82
2022/01/20 05:24:22;;;;;;;1.10;0.77;;;7.50;99.90;;;;;;5099666;28;20467;-82
2022/01/20 05:26:51;;;;;;;0.60;0.60;;;7.50;99.90;;;;;;5106641;28;20469;-82
2022/01/20 05:29:20;;;;;;;1.07;0.77;;;7.80;99.90;;;;;;5095433;28;20500;-82
2022/01/20 05:31:48;;;;;;;0.83;0.77;;;7.40;99.90;;;;;;5102168;28;20960;-82
2022/01/20 05:34:17;;;;;;;0.60;0.60;;;7.40;99.90;;;;;;5125379;28;20547;-82
2022/01/20 05:36:48;;;;;;;0.60;0.60;;;7.50;99.90;;;;;;5103290;28;20849;-82
2022/01/20 05:39:17;;;;;;;0.50;0.50;;;7.40;99.90;;;;;;5109463;28;20469;-81
2022/01/20 05:41:46;;;;;;;0.77;0.60;;;7.40;99.90;;;;;;5108943;28;20452;-83
2022/01/20 05:44:14;;;;;;;0.57;0.57;;;7.40;99.90;;;;;;5105813;28;20480;-81
2022/01/20 05:46:47;;;;;;;1.20;0.70;;;7.50;99.90;;;;;;5099076;28;20497;-81
2022/01/20 05:49:20;;;;;;;2.40;0.60;;;7.40;99.90;;;;;;5102319;28;20207;-83
2022/01/20 05:51:53;;;;;;;0.70;0.70;;;7.40;99.90;;;;;;5102691;28;20439;-83
2022/01/20 05:54:22;;;;;;;0.60;0.60;;;7.50;99.90;;;;;;5112974;28;21001;-82
2022/01/20 05:56:50;;;;;;;0.50;0.50;;;7.50;99.90;;;;;;5112338;27;20576;-82
2022/01/20 05:59:18;;;;;;;0.90;0.70;;;7.50;99.90;;;;;;5115689;27;20448;-82
2022/01/20 06:01:53;;;;;;;1.27;0.50;;;7.40;99.90;;;;;;5108476;27;20453;-82
2022/01/20 06:04:21;;;;;;;0.60;0.60;;;7.40;99.90;;;;;;5112372;28;20488;-81
2022/01/20 06:06:51;;;;;;;0.70;0.60;;;7.40;99.90;;;;;;5114508;27;20464;-81
2022/01/20 06:09:19;;;;;;;0.70;0.70;;;7.40;99.90;;;;;;5108093;28;20470;-83
2022/01/20 06:11:47;;;;;;;1.07;0.90;;;7.40;99.90;;;;;;5112962;27;20460;-83
2022/01/20 06:14:15;;;;;;;3.30;0.90;;;7.40;99.90;;;;;;5108781;28;20448;-84
2022/01/20 06:16:43;;;;;;;1.50;1.27;;;7.40;99.90;;;;;;5115766;27;20499;-82
2022/01/20 06:19:12;;;;;;;1.90;1.50;;;7.50;99.90;;;;;;5115565;27;20459;-83
2022/01/20 06:21:41;;;;;;;1.57;1.00;;;7.50;99.90;;;;;;5107654;28;20457;-83
2022/01/20 06:24:10;;;;;;;1.17;0.83;;;7.30;99.90;;;;;;5116602;27;20456;-82
2022/01/20 06:26:39;;;;;;;1.00;0.90;;;7.30;99.90;;;;;;5112218;27;20469;-83
2022/01/20 06:29:07;;;;;;;1.70;1.30;;;7.20;99.90;;;;;;5106051;28;20838;-81
2022/01/20 06:31:36;;;;;;;2.63;1.23;;;7.20;99.90;;;;;;5101241;27;21193;-82
2022/01/20 06:34:04;;;;;;;0.80;0.70;;;7.20;99.90;;;;;;5106038;27;20457;-81
2022/01/20 06:36:38;;;;;;;0.70;0.63;;;7.10;99.90;;;;;;5105504;27;21021;-83
2022/01/20 06:39:06;;;;;;;3.60;1.80;;;6.90;99.90;;;;;;5105169;28;20466;-82
2022/01/20 06:41:37;;;;;;;1.17;1.07;;;6.90;99.90;;;;;;5106684;28;20452;-81
2022/01/20 06:44:07;;;;;;;0.80;0.80;;;6.90;99.90;;;;;;5106859;27;20439;-82
2022/01/20 06:46:35;;;;;;;1.13;0.80;;;6.90;99.90;;;;;;5103640;28;20476;-81
2022/01/20 06:49:04;;;;;;;1.27;1.00;;;7.00;99.90;;;;;;5102365;27;20453;-82
2022/01/20 06:51:32;;;;;;;0.70;0.70;;;7.10;99.90;;;;;;5104782;28;20461;-82
2022/01/20 06:54:00;;;;;;;1.10;0.80;;;7.00;99.90;;;;;;5108273;27;20452;-82
2022/01/20 06:56:29;;;;;;;0.63;0.63;;;6.80;99.90;;;;;;5108669;28;20464;-81
2022/01/20 06:59:11;;;;;;;0.97;0.80;;;6.80;99.90;;;;;;5106613;28;20831;-82
2022/01/20 07:01:40;;;;;;;1.77;1.00;;;6.90;99.90;;;;;;5112997;27;20541;-84
2022/01/20 07:04:10;;;;;;;0.90;0.90;;;7.00;99.90;;;;;;5108490;27;20456;-82
2022/01/20 07:06:38;;;;;;;1.00;1.00;;;6.70;99.90;;;;;;5104733;27;20892;-83
2022/01/20 07:09:08;;;;;;;0.80;0.80;;;7.10;99.90;;;;;;5112287;27;20460;-82
2022/01/20 07:11:36;;;;;;;0.90;0.70;;;7.10;99.90;;;;;;5109238;28;20468;-83
2022/01/20 07:14:04;;;;;;;0.87;0.67;;;7.20;99.90;;;;;;5126564;27;20441;-84
2022/01/20 07:16:34;;;;;;;0.90;0.90;;;7.20;99.90;;;;;;5106605;28;20476;-82
2022/01/20 07:19:03;;;;;;;1.20;0.90;;;7.20;99.90;;;;;;5112055;27;20445;-82
2022/01/20 07:21:31;;;;;;;3.20;1.10;;;7.00;99.90;;;;;;5107682;27;20447;-78
2022/01/20 07:23:59;;;;;;;1.43;1.00;;;7.00;99.90;;;;;;5103003;27;21210;-78
2022/01/20 07:26:28;;;;;;;2.70;1.20;;;7.00;99.90;;;;;;5118664;27;21300;-80
2022/01/20 07:28:56;;;;;;;2.00;1.00;;;7.20;99.90;;;;;;5116661;27;20540;-80
2022/01/20 07:31:24;;;;;;;1.13;0.90;;;7.20;99.90;;;;;;5125069;27;20498;-80
2022/01/20 07:33:54;;;;;;;1.20;1.07;;;7.20;99.90;;;;;;5108672;28;20454;-80
2022/01/20 07:36:22;;;;;;;1.97;1.20;;;7.20;99.90;;;;;;5109541;27;20481;-81
2022/01/20 07:38:51;;;;;;;1.83;1.47;;;7.20;99.90;;;;;;5122584;27;20457;-79
2022/01/20 07:41:19;;;;;;;2.70;1.00;;;7.20;99.90;;;;;;5107154;27;20909;-81
2022/01/20 07:43:47;;;;;;;3.93;1.07;;;7.20;99.90;;;;;;5101154;28;20453;-80
2022/01/20 07:46:16;;;;;;;1.67;1.57;;;7.20;99.90;;;;;;5103206;27;20498;-80
2022/01/20 07:48:44;;;;;;;1.77;1.20;;;7.20;99.90;;;;;;5102964;27;20536;-79
2022/01/20 07:51:16;;;;;;;1.40;1.00;;;7.10;99.90;;;;;;5105344;27;20489;-80
2022/01/20 07:53:44;;;;;;;1.60;1.10;;;7.20;99.90;;;;;;5109306;27;20455;-79
2022/01/20 07:56:13;;;;;;;3.20;1.10;;;7.10;99.90;;;;;;5109161;27;20473;-79
2022/01/20 07:58:41;;;;;;;3.50;1.13;;;7.20;99.90;;;;;;5099214;28;20468;-80
2022/01/20 08:01:10;;;;;;;2.00;1.13;;;7.10;99.90;;;;;;5099164;28;20986;-80
2022/01/20 08:03:39;;;;;;;1.53;0.97;;;7.10;99.90;;;;;;5102194;28;20445;-79
2022/01/20 08:06:07;;;;;;;3.37;1.20;;;7.30;99.90;;;;;;5106108;27;20469;-80
2022/01/20 08:08:37;;;;;;;1.13;1.00;;;7.30;99.90;;;;;;5101319;27;20451;-79
2022/01/20 08:11:05;;;;;;;2.30;1.00;;;7.30;99.90;;;;;;5107020;27;20460;-79
2022/01/20 08:13:33;;;;;;;2.07;1.30;;;7.30;99.90;;;;;;5100557;27;20449;-80
2022/01/20 08:16:02;;;;;;;1.57;1.10;;;7.40;99.90;;;;;;5109832;27;20469;-79
2022/01/20 08:18:30;;;;;;;3.37;1.93;;;7.40;99.90;;;;;;5105684;27;20812;-83
2022/01/20 08:20:58;;;;;;;1.00;0.90;;;7.40;99.90;;;;;;5104172;28;20957;-80
2022/01/20 08:23:26;;;;;;;1.77;0.90;;;7.40;99.90;;;;;;5117313;27;20449;-80
2022/01/20 08:25:56;;;;;;;2.00;1.00;;;7.50;99.90;;;;;;5108473;27;20470;-81
2022/01/20 08:28:25;;;;;;;2.60;1.20;;;7.50;99.90;;;;;;5105197;28;20445;-81
2022/01/20 08:30:53;;;;;;;3.80;1.27;;;7.50;99.90;;;;;;5101517;28;20473;-80
2022/01/20 08:33:22;;;;;;;6.40;1.30;;;7.60;99.90;;;;;;5111023;27;20457;-78
2022/01/20 08:35:50;;;;;;;3.57;1.17;;;7.60;99.90;;;;;;5099051;28;20478;-80
2022/01/20 08:38:18;;;;;;;7.53;1.50;;;7.60;99.90;;;;;;5102253;27;20452;-80
2022/01/20 08:40:47;;;;;;;1.40;1.10;;;7.60;99.90;;;;;;5107252;27;20445;-79
2022/01/20 08:43:16;;;;;;;2.23;1.77;;;7.50;99.90;;;;;;5108024;28;20441;-80
2022/01/20 08:45:46;;;;;;;3.43;1.40;;;7.40;99.90;;;;;;5100326;27;20998;-80
2022/01/20 08:48:15;;;;;;;1.80;1.00;;;7.50;99.90;;;;;;5108626;28;20948;-83
2022/01/20 08:50:45;;;;;;;1.53;1.00;;;7.30;99.90;;;;;;5102369;27;20479;-81
2022/01/20 08:53:13;;;;;;;3.67;1.37;;;7.30;99.90;;;;;;5117897;27;20451;-80
2022/01/20 08:55:42;;;;;;;3.13;1.87;;;7.40;99.90;;;;;;5100096;28;20550;-82
2022/01/20 08:58:10;;;;;;;3.15;1.33;;;7.40;99.90;;;;;;5105910;28;20442;-81
2022/01/20 09:00:40;;;;;;;6.60;1.17;;;7.40;99.90;;;;;;5104061;27;20188;-80
2022/01/20 09:03:09;;;;;;;3.50;1.30;;;7.50;99.90;;;;;;5106969;28;20457;-80
2022/01/20 09:05:38;;;;;;;3.40;1.33;;;7.50;99.90;;;;;;5106859;27;20478;-80
2022/01/20 09:08:07;;;;;;;2.80;1.10;;;7.60;99.90;;;;;;5105641;27;20455;-81
2022/01/20 09:10:39;;;;;;;4.43;1.57;;;7.60;99.90;;;;;;5106354;28;20471;-83
2022/01/20 09:15:55;;;;;;;1.97;1.20;;;7.70;99.90;;;;;;5106371;28;20486;-79
2022/01/20 09:18:25;;;;;;;1.30;1.20;;;7.60;99.90;;;;;;5104133;28;20463;-80
2022/01/20 09:20:53;;;;;;;1.40;1.27;;;7.70;99.90;;;;;;5105131;27;20450;-80
2022/01/20 09:23:21;;;;;;;2.67;1.50;;;7.60;99.90;;;;;;5098110;28;20960;-80
2022/01/20 09:25:50;;;;;;;1.73;0.97;;;7.70;99.90;;;;;;5099573;28;20578;-79
2022/01/20 09:28:18;;;;;;;1.10;0.93;;;7.60;99.90;;;;;;5102456;28;20450;-80
2022/01/20 09:30:48;;;;;;;1.83;1.73;;;7.60;99.90;;;;;;5098074;28;20470;-80
2022/01/20 09:33:26;;;;;;;4.17;1.40;;;7.60;99.90;;;;;;5106333;28;20553;-80
2022/01/20 09:35:54;;;;;;;3.37;1.33;;;7.60;99.90;;;;;;5108602;28;20480;-81
2022/01/20 09:38:22;;;;;;;3.00;1.20;;;7.60;99.90;;;;;;5099515;28;20454;-79
2022/01/20 09:40:51;;;;;;;1.70;1.07;;;7.70;99.90;;;;;;5104529;28;20477;-79
2022/01/20 09:43:19;;;;;;;5.00;1.30;;;7.70;99.90;;;;;;5108520;28;20458;-80
2022/01/20 09:45:51;;;;;;;4.10;1.20;;;7.80;99.90;;;;;;5097684;28;20471;-83
2022/01/20 09:48:21;;;;;;;2.30;1.63;;;7.70;99.90;;;;;;5105527;28;20536;-80
2022/01/20 09:50:50;;;;;;;1.90;1.30;;;7.60;99.90;;;;;;5105757;28;20477;-81
2022/01/20 09:53:19;;;;;;;2.97;1.30;;;7.50;99.90;;;;;;5100480;28;20471;-81
2022/01/20 09:55:48;;;;;;;2.07;1.10;;;7.50;99.90;;;;;;5100772;27;20478;-81
2022/01/20 09:58:17;;;;;;;2.40;1.30;;;7.60;99.90;;;;;;5104339;28;21054;-80
2022/01/20 10:00:46;;;;;;;1.50;1.10;;;7.70;99.90;;;;;;5108917;28;20468;-81
2022/01/20 10:03:16;;;;;;;4.33;1.30;;;7.70;99.90;;;;;;5099168;28;20460;-81
2022/01/20 10:05:48;;;;;;;3.40;1.20;;;7.70;99.90;;;;;;5099256;28;20806;-80
2022/01/20 10:08:21;;;;;;;6.18;1.70;;;7.70;99.90;;;;;;5109432;28;20446;-78
2022/01/20 10:10:52;;;;;;;3.10;1.30;;;7.60;99.90;;;;;;5097428;28;20249;-80
2022/01/20 10:13:22;;;;;;;3.90;1.40;;;7.70;99.90;;;;;;5110287;28;20538;-79
2022/01/20 10:16:02;;;;;;;3.00;1.30;;;7.70;99.90;;;;;;5098416;28;20475;-79
2022/01/20 10:18:32;;;;;;;4.40;1.30;;;7.60;99.90;;;;;;5107653;28;20945;-79
2022/01/20 10:21:04;;;;;;;2.37;1.07;;;7.60;99.90;;;;;;5110026;27;20447;-79
2022/01/20 10:23:38;;;;;;;2.53;1.07;;;7.60;99.90;;;;;;5107449;28;20808;-81
2022/01/20 10:26:11;;;;;;;1.37;1.27;;;7.70;99.90;;;;;;5104262;28;21011;-79
2022/01/20 10:28:47;;;;;;;4.20;1.20;;;7.80;99.90;;;;;;5099260;28;20458;-81
2022/01/20 10:31:16;;;;;;;8.20;1.30;;;7.80;99.90;;;;;;5111467;28;20477;-80
2022/01/20 10:33:46;;;;;;;2.47;1.30;;;7.90;99.90;;;;;;5111831;27;20927;-82
2022/01/20 10:36:15;;;;;;;6.13;1.40;;;7.80;99.90;;;;;;5112788;27;20477;-83
2022/01/20 10:38:51;;;;;;;4.63;1.73;;;7.80;99.90;;;;;;5100510;28;20454;-79
2022/01/20 10:41:31;;;;;;;3.43;1.03;;;7.70;99.90;;;;;;5103955;28;20464;-80
2022/01/20 10:44:09;;;;;;;5.93;1.38;;;7.80;99.90;;;;;;5110591;27;20941;-79
2022/01/20 10:46:50;;;;;;;2.03;1.17;;;7.80;99.90;;;;;;5099826;28;20719;-77
2022/01/20 10:49:20;;;;;;;2.47;1.30;;;7.80;99.90;;;;;;5105402;28;20660;-79
2022/01/20 10:52:00;;;;;;;3.80;1.03;;;7.80;99.90;;;;;;5105008;28;20472;-80
2022/01/20 10:54:40;;;;;;;4.00;1.30;;;7.90;99.90;;;;;;5106942;27;20520;-83
2022/01/20 10:57:10;;;;;;;4.60;1.57;;;7.90;99.90;;;;;;5112248;27;20449;-83
2022/01/20 10:59:50;;;;;;;5.73;1.17;;;7.90;99.90;;;;;;5106073;28;20464;-80
2022/01/20 11:02:20;;;;;;;3.47;1.80;;;7.90;99.90;;;;;;5109645;27;20452;-79
2022/01/20 11:04:49;;;;;;;1.40;1.30;;;7.90;99.90;;;;;;5111929;28;20493;-79
2022/01/20 11:07:19;;;;;;;2.20;1.47;;;8.00;99.90;;;;;;5110743;27;20457;-85
2022/01/20 11:09:54;;;;;;;3.97;1.60;;;7.90;99.90;;;;;;5110276;27;20532;-83
2022/01/20 11:12:22;;;;;;;1.53;1.07;;;7.80;99.90;;;;;;5102144;27;20989;-80
2022/01/20 11:14:54;;;;;;;3.20;1.20;;;7.80;99.90;;;;;;5110385;27;20486;-79
2022/01/20 11:17:24;;;;;;;2.13;1.10;;;7.70;99.90;;;;;;5112463;27;20437;-81
2022/01/20 11:19:53;;;;;;;1.90;1.20;;;7.60;99.90;;;;;;5106547;28;20450;-80
2022/01/20 11:22:23;;;;;;;2.73;1.17;;;7.60;99.90;;;;;;5109806;27;20441;-80
2022/01/20 11:24:59;;;;;;;2.73;1.10;;;7.60;99.90;;;;;;5097572;27;20480;-82
2022/01/20 11:27:39;;;;;;;1.83;1.00;;;7.60;99.90;;;;;;5103593;28;20461;-78
2022/01/20 11:30:16;;;;;;;2.50;1.20;;;7.60;99.90;;;;;;5109296;28;20446;-82
2022/01/20 11:32:46;;;;;;;1.80;1.30;;;7.60;99.90;;;;;;5107570;27;20516;-80
2022/01/20 11:35:16;;;;;;;2.07;1.73;;;7.40;99.90;;;;;;5112085;27;20476;-80
2022/01/20 11:37:59;;;;;;;3.03;1.30;;;7.40;99.90;;;;;;5102625;28;20458;-79
2022/01/20 11:40:28;;;;;;;2.90;1.40;;;7.40;99.90;;;;;;5103692;27;20459;-80
2022/01/20 11:42:58;;;;;;;1.60;1.40;;;7.50;99.90;;;;;;5107358;28;20457;-81
2022/01/20 11:45:31;;;;;;;2.43;1.40;;;7.60;99.90;;;;;;5103592;27;20535;-79
2022/01/20 11:48:11;;;;;;;2.30;1.10;;;7.60;99.90;;;;;;5099687;28;20457;-79
2022/01/20 11:50:40;;;;;;;2.33;1.33;;;7.60;99.90;;;;;;5104910;28;21040;-79
2022/01/20 11:53:14;;;;;;;2.10;0.90;;;7.70;99.90;;;;;;5105325;27;20505;-80
2022/01/20 11:55:48;;;;;;;1.20;1.10;;;7.70;99.90;;;;;;5113583;27;20504;-81
2022/01/20 11:58:19;;;;;;;2.63;1.10;;;7.80;99.90;;;;;;5108379;27;20465;-80
2022/01/20 12:00:58;;;;;;;2.37;1.23;;;7.80;99.90;;;;;;5097081;27;20446;-79
2022/01/20 12:03:29;;;;;;;1.37;1.07;;;7.90;99.90;;;;;;5108616;27;20455;-80
2022/01/20 12:05:59;;;;;;;3.93;1.40;;;7.80;99.90;;;;;;5120080;27;20460;-80
2022/01/20 12:08:29;;;;;;;1.30;1.20;;;7.80;99.90;;;;;;5101285;27;20455;-80
2022/01/20 12:11:00;;;;;;;1.43;1.30;;;7.70;99.90;;;;;;5108422;28;20582;-80
2022/01/20 12:13:30;;;;;;;4.27;1.33;;;7.70;99.90;;;;;;5113202;27;20473;-80
2022/01/20 12:16:01;;;;;;;3.70;1.40;;;7.70;99.90;;;;;;5111559;27;20473;-80
2022/01/20 12:18:29;;;;;;;1.73;1.27;;;7.70;99.90;;;;;;5100777;28;20441;-80
2022/01/20 12:21:01;;;;;;;1.65;1.30;;;7.70;99.90;;;;;;5106463;27;20432;-76
2022/01/20 12:23:31;;;;;;;1.67;1.40;;;7.50;99.90;;;;;;5107328;28;20722;-77
2022/01/20 12:26:04;;;;;;;4.07;1.67;;;7.60;99.90;;;;;;5101964;28;20586;-75
2022/01/20 12:28:33;;;;;;;1.40;1.20;;;7.60;99.90;;;;;;5102841;28;20538;-78
2022/01/20 12:31:02;;;;;;;1.60;1.50;;;7.70;99.90;;;;;;5102154;28;20449;-78
2022/01/20 12:33:33;;;;;;;7.80;2.13;;;7.80;99.90;;;;;;5108088;27;20833;-79
2022/01/20 12:36:04;;;;;;;1.90;1.40;;;7.80;99.90;;;;;;5109356;27;20470;-82
2022/01/20 12:38:35;;;;;;;2.70;2.53;;;7.90;99.90;;;;;;5107858;28;20450;-79
2022/01/20 12:41:06;;;;;;;2.10;1.10;;;7.70;99.90;;;;;;5110923;28;21044;-85
2022/01/20 12:43:40;;;;;;;8.57;2.37;;;7.70;99.90;;;;;;5111107;28;20486;-82
2022/01/20 12:46:11;;;;;;;1.53;1.43;;;7.70;99.90;;;;;;5112044;27;20463;-77
2022/01/20 12:48:50;;;;;;;2.83;1.50;;;7.80;99.90;;;;;;5109149;28;20517;-78
2022/01/20 12:51:19;;;;;;;1.60;1.50;;;7.80;99.90;;;;;;5104886;27;20541;-79
2022/01/20 12:53:55;;;;;;;2.10;1.90;;;7.80;99.90;;;;;;5104679;27;21109;-81
2022/01/20 12:56:31;;;;;;;2.53;1.30;;;7.80;99.90;;;;;;5109624;28;20464;-79
2022/01/20 12:58:59;;;;;;;1.60;1.50;;;7.80;99.90;;;;;;5119868;27;20452;-81
2022/01/20 13:01:39;;;;;;;3.20;1.70;;;7.70;99.90;;;;;;5106260;28;20603;-79
2022/01/20 13:04:09;;;;;;;1.73;1.30;;;7.80;99.90;;;;;;5102694;28;20466;-79
2022/01/20 13:06:45;;;;;;;2.33;0.90;;;7.60;99.90;;;;;;5123511;27;20499;-80
2022/01/20 13:09:15;;;;;;;2.30;1.20;;;7.60;99.90;;;;;;5106077;27;20448;-80
2022/01/20 13:11:53;;;;;;;3.60;0.97;;;7.50;99.90;;;;;;5108861;28;20461;-77
2022/01/20 13:14:32;;;;;;;1.27;1.20;;;7.40;99.90;;;;;;5112004;27;20469;-80
2022/01/20 13:17:01;;;;;;;0.60;0.60;;;7.40;99.90;;;;;;5108785;28;20936;-81
2022/01/20 13:19:34;;;;;;;1.50;0.63;;;7.30;99.90;;;;;;5107221;27;20485;-80
2022/01/20 13:22:05;;;;;;;0.87;0.77;;;7.30;99.90;;;;;;5109357;28;20487;-79
2022/01/20 13:24:36;;;;;;;0.50;0.50;;;7.30;99.90;;;;;;5099495;28;21209;-80
2022/01/20 13:27:08;;;;;;;0.93;0.80;;;7.20;99.90;;;;;;5108632;27;20941;-81
2022/01/20 13:29:42;;;;;;;0.63;0.60;;;7.20;99.90;;;;;;5112904;28;20796;-80
2022/01/20 13:32:11;;;;;;;0.60;0.60;;;7.10;99.90;;;;;;5108661;28;21139;-81
2022/01/20 13:34:40;;;;;;;1.33;0.73;;;7.10;99.90;;;;;;5109402;28;20480;-80
2022/01/20 13:37:15;;;;;;;2.00;0.80;;;7.10;99.90;;;;;;5108804;28;20457;-81
2022/01/20 13:39:47;;;;;;;1.43;0.80;;;7.10;99.90;;;;;;5109695;27;20453;-80
2022/01/20 13:42:30;;;;;;;2.07;1.13;;;7.00;99.90;;;;;;5100792;28;20811;-80
2022/01/20 13:45:14;;;;;;;1.40;0.88;;;7.00;99.90;;;;;;5097107;28;20484;-80
2022/01/20 13:47:55;;;;;;;0.80;0.60;;;7.00;99.90;;;;;;5107766;28;20677;-83
2022/01/20 13:50:25;;;;;;;2.07;0.90;;;7.10;99.90;;;;;;5110044;28;20460;-80
2022/01/20 13:52:54;;;;;;;0.70;0.60;;;7.10;99.90;;;;;;5112620;28;20469;-80
2022/01/20 13:55:26;;;;;;;2.30;1.13;;;7.00;99.90;;;;;;5110180;28;20464;-78
2022/01/20 13:57:56;;;;;;;1.27;0.83;;;7.00;99.90;;;;;;5099947;28;20207;-79
2022/01/20 14:00:26;;;;;;;4.53;0.90;;;7.00;99.90;;;;;;5100965;28;20453;-81
2022/01/20 14:02:55;;;;;;;2.00;1.20;;;7.00;99.90;;;;;;5106337;28;20447;-80
2022/01/20 14:05:29;;;;;;;3.17;1.27;;;6.90;99.90;;;;;;5104216;28;20481;-81